createdAt,value
2023-01-26T00:00:31.798Z,28.23
2023-01-26T00:05:37.170Z,29.70
2023-01-26T00:10:40.199Z,28.53
2023-01-26T00:15:42.184Z,28.87
2023-01-26T00:20:43.897Z,27.77
2023-01-26T00:25:45.516Z,28.97
2023-01-26T00:30:47.219Z,28.97
2023-01-26T00:35:55.588Z,27.97
2023-01-26T00:40:57.266Z,28.80
2023-01-26T00:45:58.872Z,30.33
2023-01-26T00:51:00.461Z,32.50
2023-01-26T00:56:02.058Z,33.93
2023-01-26T01:01:03.771Z,34.97
2023-01-26T01:06:05.509Z,38.37
2023-01-26T01:11:09.193Z,39.47
2023-01-26T01:16:13.512Z,37.30
2023-01-26T01:21:16.816Z,37.30
2023-01-26T01:26:18.501Z,39.47
2023-01-26T01:31:20.288Z,39.33
2023-01-26T01:36:22.068Z,44.23
2023-01-26T01:41:26.234Z,42.53
2023-01-26T01:46:32.724Z,44.30
2023-01-26T01:51:42.143Z,42.67
2023-01-26T01:56:49.951Z,42.80
2023-01-26T02:01:52.401Z,46.67
2023-01-26T02:06:57.300Z,44.17
2023-01-26T02:12:21.472Z,39.60
2023-01-26T02:17:23.637Z,40.27
2023-01-26T02:22:45.892Z,45.17
2023-01-26T02:27:49.378Z,47.00
2023-01-26T02:32:50.968Z,42.30
2023-01-26T02:37:52.822Z,47.47
2023-01-26T02:42:55.149Z,46.37
2023-01-26T02:47:57.889Z,41.50
2023-01-26T02:53:01.397Z,44.47
2023-01-26T02:58:05.686Z,43.87
2023-01-26T03:03:14.997Z,48.93
2023-01-26T03:08:16.565Z,41.20
2023-01-26T03:13:18.606Z,45.13
2023-01-26T03:18:40.770Z,44.47
2023-01-26T03:24:01.186Z,38.23
2023-01-26T03:29:03.425Z,38.37
2023-01-26T03:34:05.170Z,41.17
2023-01-26T03:39:07.463Z,44.13
2023-01-26T03:44:27.871Z,39.90
2023-01-26T03:49:49.592Z,40.70
2023-01-26T03:55:09.906Z,41.93
2023-01-26T04:00:15.045Z,41.03
2023-01-26T04:05:37.518Z,37.50
2023-01-26T04:10:39.292Z,37.40
2023-01-26T04:15:59.770Z,38.80
2023-01-26T04:21:23.713Z,35.47
2023-01-26T04:26:34.639Z,33.63
2023-01-26T04:31:38.413Z,31.23
2023-01-26T04:36:40.703Z,30.43
2023-01-26T04:41:42.612Z,30.00
2023-01-26T04:46:48.785Z,29.70
2023-01-26T04:51:51.017Z,30.00
2023-01-26T04:56:52.719Z,25.97
2023-01-26T05:01:54.289Z,26.63
2023-01-26T05:06:56.202Z,26.37
2023-01-26T05:12:20.602Z,27.73
2023-01-26T05:17:48.258Z,25.97
2023-01-26T05:23:06.875Z,25.50
2023-01-26T05:28:27.273Z,29.20
2023-01-26T05:33:30.056Z,29.10
2023-01-26T05:38:32.417Z,33.33
2023-01-26T05:43:34.197Z,35.17
2023-01-26T05:48:54.045Z,38.03
2023-01-26T05:53:55.715Z,35.53
2023-01-26T05:58:57.375Z,35.23
2023-01-26T06:03:59.184Z,30.27
2023-01-26T06:09:05.366Z,31.70
2023-01-26T06:14:07.043Z,35.03
2023-01-26T06:19:10.189Z,29.50
2023-01-26T06:24:12.844Z,31.13
2023-01-26T06:29:15.658Z,36.07
2023-01-26T06:34:17.368Z,34.27
2023-01-26T06:39:19.065Z,35.63
2023-01-26T06:44:21.073Z,35.23
2023-01-26T06:49:22.729Z,34.57
2023-01-26T06:54:24.501Z,39.27
2023-01-26T06:59:36.864Z,31.70
2023-01-26T07:04:58.671Z,30.13
2023-01-26T07:10:00.257Z,31.00
2023-01-26T07:15:02.034Z,30.27
2023-01-26T07:20:03.899Z,32.57
2023-01-26T07:25:05.984Z,34.10
2023-01-26T07:30:09.080Z,30.83
2023-01-26T07:35:10.783Z,30.03
2023-01-26T07:40:13.028Z,28.00
2023-01-26T07:45:17.737Z,27.23
2023-01-26T07:50:21.476Z,27.00
2023-01-26T07:55:26.047Z,28.50
2023-01-26T08:00:27.622Z,27.23
2023-01-26T08:05:29.468Z,28.10
2023-01-26T08:10:31.657Z,29.13
2023-01-26T08:15:33.253Z,30.20
2023-01-26T08:20:34.828Z,33.30
2023-01-26T08:25:36.372Z,28.33
2023-01-26T08:30:38.182Z,28.33
2023-01-26T08:35:39.891Z,30.00
2023-01-26T08:40:41.614Z,30.10
2023-01-26T08:45:43.201Z,30.90
2023-01-26T08:50:45.319Z,28.63
2023-01-26T08:55:46.932Z,30.20
2023-01-26T09:00:49.051Z,30.20
2023-01-26T09:05:50.710Z,30.17
2023-01-26T09:10:52.267Z,31.57
2023-01-26T09:15:53.991Z,31.63
2023-01-26T09:20:56.053Z,33.50
2023-01-26T09:25:57.611Z,29.27
2023-01-26T09:31:07.166Z,33.13
2023-01-26T09:36:10.749Z,29.93
2023-01-26T09:41:34.096Z,29.30
2023-01-26T09:46:54.492Z,29.13
2023-01-26T09:52:04.902Z,33.10
2023-01-26T09:57:15.341Z,33.30
2023-01-26T10:02:41.590Z,29.23
2023-01-26T10:07:45.339Z,30.90
2023-01-26T10:12:47.907Z,31.20
2023-01-26T10:17:50.626Z,32.07
2023-01-26T10:22:55.185Z,29.13
2023-01-26T10:27:56.817Z,31.60
2023-01-26T10:32:58.551Z,31.83
2023-01-26T10:38:00.181Z,28.37
2023-01-26T10:43:01.761Z,29.13
2023-01-26T10:48:16.783Z,29.60
2023-01-26T10:53:29.935Z,28.63
2023-01-26T10:58:50.295Z,25.13
2023-01-26T11:04:05.208Z,28.50
2023-01-26T11:09:27.076Z,30.03
2023-01-26T11:14:30.388Z,31.93
2023-01-26T11:19:50.328Z,26.20
2023-01-26T11:25:00.182Z,28.33
2023-01-26T11:30:33.335Z,28.27
2023-01-26T11:36:04.003Z,27.63
2023-01-26T11:41:19.077Z,28.83
2023-01-26T11:46:29.679Z,32.93
2023-01-26T11:52:03.557Z,28.10
2023-01-26T11:57:41.973Z,27.43
2023-01-26T12:02:51.732Z,27.20
2023-01-26T12:08:01.128Z,28.43
2023-01-26T12:13:31.988Z,26.10
2023-01-26T12:18:53.051Z,25.30
2023-01-26T12:24:03.079Z,25.03
2023-01-26T12:29:20.869Z,23.67
2023-01-26T12:34:28.946Z,23.13
2023-01-26T12:39:45.488Z,26.33
2023-01-26T12:44:52.744Z,21.30
2023-01-26T12:50:16.627Z,22.27
2023-01-26T12:55:20.199Z,22.20
2023-01-26T13:00:30.455Z,22.83
2023-01-26T13:05:36.079Z,21.23
2023-01-26T13:10:46.462Z,20.47
2023-01-26T13:15:48.126Z,18.90
2023-01-26T13:20:50.373Z,18.93
2023-01-26T13:26:15.016Z,18.00
2023-01-26T13:31:32.899Z,20.43
2023-01-26T13:36:36.875Z,19.70
2023-01-26T13:41:47.555Z,18.47
2023-01-26T13:46:54.165Z,19.60
2023-01-26T13:51:55.733Z,19.87
2023-01-26T13:57:07.492Z,15.87
2023-01-26T14:02:22.707Z,15.73
2023-01-26T14:07:38.345Z,17.37
2023-01-26T14:12:47.295Z,18.47
2023-01-26T14:17:51.685Z,16.50
2023-01-26T14:23:19.669Z,15.27
2023-01-26T14:28:22.538Z,16.80
2023-01-26T14:33:24.651Z,16.23
2023-01-26T14:38:28.821Z,14.10
2023-01-26T14:43:30.392Z,15.47
2023-01-26T14:48:37.928Z,14.73
2023-01-26T14:53:39.513Z,14.63
2023-01-26T14:58:41.451Z,15.33
2023-01-26T15:03:43.023Z,12.77
2023-01-26T15:08:55.386Z,13.57
2023-01-26T15:13:57.056Z,15.00
2023-01-26T15:19:09.245Z,14.17
2023-01-26T15:24:13.985Z,13.43
2023-01-26T15:29:32.594Z,13.17
2023-01-26T15:34:38.823Z,13.83
2023-01-26T15:39:40.364Z,12.77
2023-01-26T15:44:42.411Z,13.73
2023-01-26T15:49:44.094Z,13.13
2023-01-26T15:54:45.676Z,13.63
2023-01-26T15:59:47.349Z,14.17
2023-01-26T16:04:48.995Z,12.57
2023-01-26T16:09:51.843Z,12.57
2023-01-26T16:14:53.399Z,14.83
2023-01-26T16:19:55.063Z,14.63
2023-01-26T16:24:56.632Z,13.03
2023-01-26T16:29:58.301Z,14.03
2023-01-26T16:35:00.032Z,13.37
2023-01-26T16:40:01.625Z,14.27
2023-01-26T16:45:03.497Z,15.10
2023-01-26T16:50:05.333Z,15.67
2023-01-26T16:55:12.636Z,15.40
2023-01-26T17:00:16.661Z,15.47
2023-01-26T17:05:21.056Z,13.07
2023-01-26T17:10:24.065Z,12.50
2023-01-26T17:15:25.724Z,13.27
2023-01-26T17:20:27.333Z,14.97
2023-01-26T17:25:28.896Z,14.00
2023-01-26T17:30:30.552Z,13.30
2023-01-26T17:35:32.295Z,13.97
2023-01-26T17:40:35.210Z,12.03
2023-01-26T17:45:36.837Z,13.93
2023-01-26T17:50:38.433Z,11.17
2023-01-26T17:55:40.000Z,11.50
2023-01-26T18:00:42.098Z,10.07
2023-01-26T18:05:51.785Z,11.03
2023-01-26T18:11:04.118Z,10.47
2023-01-26T18:16:07.033Z,10.60
2023-01-26T18:21:11.713Z,12.53
2023-01-26T18:26:14.062Z,11.73
2023-01-26T18:31:19.101Z,12.13
2023-01-26T18:36:21.236Z,11.10
2023-01-26T18:41:23.842Z,12.23
2023-01-26T18:46:27.150Z,14.53
2023-01-26T18:51:30.755Z,15.07
2023-01-26T18:56:32.504Z,22.47
2023-01-26T19:01:34.367Z,15.73
2023-01-26T19:06:36.322Z,16.43
2023-01-26T19:11:38.942Z,16.23
2023-01-26T19:16:42.228Z,17.57
2023-01-26T19:21:43.857Z,16.43
2023-01-26T19:26:45.455Z,15.20
2023-01-26T19:31:47.121Z,15.70
2023-01-26T19:36:48.918Z,16.33
2023-01-26T19:41:50.699Z,15.87
2023-01-26T19:46:53.545Z,16.50
2023-01-26T19:51:55.492Z,16.93
2023-01-26T19:56:57.182Z,16.87
2023-01-26T20:01:58.862Z,14.77
2023-01-26T20:07:02.085Z,15.80
2023-01-26T20:12:06.099Z,16.57
2023-01-26T20:17:07.927Z,16.73
2023-01-26T20:22:09.561Z,16.53
2023-01-26T20:27:11.150Z,14.60
2023-01-26T20:32:13.794Z,14.33
2023-01-26T20:37:15.548Z,14.27
2023-01-26T20:42:18.818Z,14.80
2023-01-26T20:47:22.433Z,15.47
2023-01-26T20:52:25.014Z,14.70
2023-01-26T20:57:26.669Z,15.90
2023-01-26T21:02:28.425Z,12.33
2023-01-26T21:07:30.053Z,13.30
2023-01-26T21:12:33.969Z,14.13
2023-01-26T21:17:35.537Z,12.07
2023-01-26T21:22:37.218Z,12.37
2023-01-26T21:27:38.930Z,15.23
2023-01-26T21:32:40.499Z,18.47
2023-01-26T21:37:42.126Z,21.80
2023-01-26T21:42:43.675Z,20.03
2023-01-26T21:48:05.246Z,19.90
2023-01-26T21:53:06.826Z,19.93
2023-01-26T21:58:27.352Z,20.63
2023-01-26T22:03:33.123Z,19.17
2023-01-26T22:08:35.465Z,20.07
2023-01-26T22:13:38.039Z,20.57
2023-01-26T22:18:40.449Z,22.10
2023-01-26T22:23:42.387Z,17.13
2023-01-26T22:28:49.988Z,18.30
2023-01-26T22:33:53.049Z,17.40
2023-01-26T22:38:54.745Z,16.60
2023-01-26T22:43:58.065Z,18.30
2023-01-26T22:48:59.970Z,20.40
2023-01-26T22:54:01.635Z,20.17
2023-01-26T22:59:03.305Z,18.70
2023-01-26T23:04:04.966Z,17.77
2023-01-26T23:09:06.581Z,20.83
2023-01-26T23:14:08.301Z,20.47
2023-01-26T23:19:09.936Z,19.73
2023-01-26T23:24:11.593Z,18.03
2023-01-26T23:29:13.249Z,19.53
2023-01-26T23:34:14.860Z,17.60
2023-01-26T23:39:16.480Z,16.10
2023-01-26T23:44:18.061Z,18.47
2023-01-26T23:49:19.640Z,17.73
2023-01-26T23:54:21.249Z,15.40
2023-01-26T23:59:23.020Z,16.60
